sensor_id;sensor_type;location;lat;lon;timestamp;P1;durP1;ratioP1;P2;durP2;ratioP2
25301;SDS011;13243;50.888;4.724;2023-04-25T00:01:26;19.27;;;5.07;;
25301;SDS011;13243;50.888;4.724;2023-04-25T00:06:28;16.30;;;4.28;;
25301;SDS011;13243;50.888;4.724;2023-04-25T00:11:33;19.05;;;5.07;;
25301;SDS011;13243;50.888;4.724;2023-04-25T00:16:35;13.32;;;4.30;;
25301;SDS011;13243;50.888;4.724;2023-04-25T00:21:37;14.95;;;4.75;;
25301;SDS011;13243;50.888;4.724;2023-04-25T00:26:41;15.60;;;4.70;;
25301;SDS011;13243;50.888;4.724;2023-04-25T00:31:43;17.88;;;4.60;;
25301;SDS011;13243;50.888;4.724;2023-04-25T00:36:45;14.73;;;4.78;;
25301;SDS011;13243;50.888;4.724;2023-04-25T00:41:47;12.02;;;4.57;;
25301;SDS011;13243;50.888;4.724;2023-04-25T00:46:49;16.30;;;4.60;;
25301;SDS011;13243;50.888;4.724;2023-04-25T00:51:51;19.02;;;4.68;;
25301;SDS011;13243;50.888;4.724;2023-04-25T00:56:53;13.95;;;4.43;;
25301;SDS011;13243;50.888;4.724;2023-04-25T01:01:56;15.43;;;5.18;;
25301;SDS011;13243;50.888;4.724;2023-04-25T01:06:58;16.77;;;5.07;;
25301;SDS011;13243;50.888;4.724;2023-04-25T01:12:00;18.88;;;5.28;;
25301;SDS011;13243;50.888;4.724;2023-04-25T01:17:02;23.73;;;5.45;;
25301;SDS011;13243;50.888;4.724;2023-04-25T01:22:04;18.13;;;4.97;;
25301;SDS011;13243;50.888;4.724;2023-04-25T01:27:06;14.68;;;4.40;;
25301;SDS011;13243;50.888;4.724;2023-04-25T01:32:08;13.45;;;5.07;;
25301;SDS011;13243;50.888;4.724;2023-04-25T01:37:11;14.07;;;5.00;;
25301;SDS011;13243;50.888;4.724;2023-04-25T01:42:13;14.93;;;5.00;;
25301;SDS011;13243;50.888;4.724;2023-04-25T01:47:15;16.80;;;4.35;;
25301;SDS011;13243;50.888;4.724;2023-04-25T01:52:17;12.73;;;4.45;;
25301;SDS011;13243;50.888;4.724;2023-04-25T01:57:19;16.00;;;5.20;;
25301;SDS011;13243;50.888;4.724;2023-04-25T02:02:21;20.00;;;4.70;;
25301;SDS011;13243;50.888;4.724;2023-04-25T02:07:23;17.52;;;5.00;;
25301;SDS011;13243;50.888;4.724;2023-04-25T02:12:25;14.65;;;4.65;;
25301;SDS011;13243;50.888;4.724;2023-04-25T02:17:28;26.70;;;4.85;;
25301;SDS011;13243;50.888;4.724;2023-04-25T02:22:32;18.90;;;4.18;;
25301;SDS011;13243;50.888;4.724;2023-04-25T02:27:36;18.17;;;4.18;;
25301;SDS011;13243;50.888;4.724;2023-04-25T02:32:38;21.80;;;5.35;;
25301;SDS011;13243;50.888;4.724;2023-04-25T02:37:41;18.50;;;4.53;;
25301;SDS011;13243;50.888;4.724;2023-04-25T02:42:43;21.85;;;5.05;;
25301;SDS011;13243;50.888;4.724;2023-04-25T02:47:46;19.02;;;5.10;;
25301;SDS011;13243;50.888;4.724;2023-04-25T02:52:48;13.10;;;4.22;;
25301;SDS011;13243;50.888;4.724;2023-04-25T02:57:50;22.00;;;5.07;;
25301;SDS011;13243;50.888;4.724;2023-04-25T03:02:52;23.75;;;4.05;;
25301;SDS011;13243;50.888;4.724;2023-04-25T03:07:54;19.02;;;3.90;;
25301;SDS011;13243;50.888;4.724;2023-04-25T03:12:56;17.15;;;4.43;;
25301;SDS011;13243;50.888;4.724;2023-04-25T03:17:58;18.60;;;4.28;;
25301;SDS011;13243;50.888;4.724;2023-04-25T03:23:00;13.27;;;3.83;;
25301;SDS011;13243;50.888;4.724;2023-04-25T03:28:02;21.05;;;4.03;;
25301;SDS011;13243;50.888;4.724;2023-04-25T03:33:04;15.13;;;4.32;;
25301;SDS011;13243;50.888;4.724;2023-04-25T03:38:06;14.80;;;4.13;;
25301;SDS011;13243;50.888;4.724;2023-04-25T03:43:08;19.67;;;4.10;;
25301;SDS011;13243;50.888;4.724;2023-04-25T03:48:10;25.25;;;4.65;;
25301;SDS011;13243;50.888;4.724;2023-04-25T03:53:12;19.42;;;5.25;;
25301;SDS011;13243;50.888;4.724;2023-04-25T03:58:14;13.75;;;4.38;;
25301;SDS011;13243;50.888;4.724;2023-04-25T04:03:16;23.10;;;3.80;;
25301;SDS011;13243;50.888;4.724;2023-04-25T04:08:18;13.75;;;4.07;;
25301;SDS011;13243;50.888;4.724;2023-04-25T04:13:20;23.05;;;5.05;;
25301;SDS011;13243;50.888;4.724;2023-04-25T04:18:22;17.75;;;5.07;;
25301;SDS011;13243;50.888;4.724;2023-04-25T04:23:24;23.05;;;4.88;;
25301;SDS011;13243;50.888;4.724;2023-04-25T04:28:25;17.70;;;4.20;;
25301;SDS011;13243;50.888;4.724;2023-04-25T04:33:27;17.35;;;4.72;;
25301;SDS011;13243;50.888;4.724;2023-04-25T04:38:29;24.65;;;4.43;;
25301;SDS011;13243;50.888;4.724;2023-04-25T04:43:31;8.30;;;3.30;;
25301;SDS011;13243;50.888;4.724;2023-04-25T04:48:34;23.80;;;5.13;;
25301;SDS011;13243;50.888;4.724;2023-04-25T04:53:36;15.20;;;3.60;;
25301;SDS011;13243;50.888;4.724;2023-04-25T04:58:38;19.90;;;4.00;;
25301;SDS011;13243;50.888;4.724;2023-04-25T05:03:40;17.17;;;4.22;;
25301;SDS011;13243;50.888;4.724;2023-04-25T05:08:42;11.70;;;3.75;;
25301;SDS011;13243;50.888;4.724;2023-04-25T05:13:44;16.00;;;4.22;;
25301;SDS011;13243;50.888;4.724;2023-04-25T05:18:46;15.23;;;4.70;;
25301;SDS011;13243;50.888;4.724;2023-04-25T05:23:48;16.88;;;5.38;;
25301;SDS011;13243;50.888;4.724;2023-04-25T05:28:51;14.27;;;4.43;;
25301;SDS011;13243;50.888;4.724;2023-04-25T05:33:52;17.73;;;4.13;;
25301;SDS011;13243;50.888;4.724;2023-04-25T05:38:54;13.85;;;4.30;;
25301;SDS011;13243;50.888;4.724;2023-04-25T05:43:56;17.00;;;4.50;;
25301;SDS011;13243;50.888;4.724;2023-04-25T05:48:59;16.23;;;4.15;;
25301;SDS011;13243;50.888;4.724;2023-04-25T05:54:00;13.63;;;4.32;;
25301;SDS011;13243;50.888;4.724;2023-04-25T05:59:02;15.05;;;4.72;;
25301;SDS011;13243;50.888;4.724;2023-04-25T06:04:04;25.77;;;5.07;;
25301;SDS011;13243;50.888;4.724;2023-04-25T06:09:06;19.85;;;5.00;;
25301;SDS011;13243;50.888;4.724;2023-04-25T06:14:08;22.63;;;5.20;;
25301;SDS011;13243;50.888;4.724;2023-04-25T06:19:10;24.63;;;4.85;;
25301;SDS011;13243;50.888;4.724;2023-04-25T06:24:12;18.10;;;5.45;;
25301;SDS011;13243;50.888;4.724;2023-04-25T06:29:14;17.95;;;5.82;;
25301;SDS011;13243;50.888;4.724;2023-04-25T06:34:15;17.50;;;4.68;;
25301;SDS011;13243;50.888;4.724;2023-04-25T06:39:18;24.25;;;4.72;;
25301;SDS011;13243;50.888;4.724;2023-04-25T06:44:21;18.08;;;5.45;;
25301;SDS011;13243;50.888;4.724;2023-04-25T06:49:25;15.63;;;5.20;;
25301;SDS011;13243;50.888;4.724;2023-04-25T06:54:27;19.45;;;5.18;;
25301;SDS011;13243;50.888;4.724;2023-04-25T06:59:30;24.42;;;5.40;;
25301;SDS011;13243;50.888;4.724;2023-04-25T07:04:33;24.70;;;5.15;;
25301;SDS011;13243;50.888;4.724;2023-04-25T07:09:36;13.88;;;4.30;;
25301;SDS011;13243;50.888;4.724;2023-04-25T07:14:38;24.15;;;5.68;;
25301;SDS011;13243;50.888;4.724;2023-04-25T07:19:40;18.25;;;5.10;;
25301;SDS011;13243;50.888;4.724;2023-04-25T07:24:42;16.40;;;4.38;;
25301;SDS011;13243;50.888;4.724;2023-04-25T07:29:44;27.35;;;4.53;;
25301;SDS011;13243;50.888;4.724;2023-04-25T07:34:46;20.45;;;4.25;;
25301;SDS011;13243;50.888;4.724;2023-04-25T07:39:47;9.18;;;3.17;;
25301;SDS011;13243;50.888;4.724;2023-04-25T07:44:49;15.18;;;4.22;;
25301;SDS011;13243;50.888;4.724;2023-04-25T07:49:52;14.75;;;3.60;;
25301;SDS011;13243;50.888;4.724;2023-04-25T07:54:54;15.88;;;3.40;;
25301;SDS011;13243;50.888;4.724;2023-04-25T07:59:56;23.15;;;4.45;;
25301;SDS011;13243;50.888;4.724;2023-04-25T08:04:58;15.93;;;3.55;;
25301;SDS011;13243;50.888;4.724;2023-04-25T08:10:00;10.10;;;3.78;;
25301;SDS011;13243;50.888;4.724;2023-04-25T08:15:03;14.55;;;3.30;;
25301;SDS011;13243;50.888;4.724;2023-04-25T08:20:05;17.63;;;3.33;;
25301;SDS011;13243;50.888;4.724;2023-04-25T08:25:08;7.40;;;2.83;;
25301;SDS011;13243;50.888;4.724;2023-04-25T08:30:10;9.05;;;2.78;;
25301;SDS011;13243;50.888;4.724;2023-04-25T08:35:12;12.93;;;3.08;;
25301;SDS011;13243;50.888;4.724;2023-04-25T08:40:14;14.43;;;3.53;;
25301;SDS011;13243;50.888;4.724;2023-04-25T08:45:17;9.70;;;3.08;;
25301;SDS011;13243;50.888;4.724;2023-04-25T08:50:19;11.57;;;2.72;;
25301;SDS011;13243;50.888;4.724;2023-04-25T08:55:23;14.88;;;3.00;;
25301;SDS011;13243;50.888;4.724;2023-04-25T09:00:25;8.20;;;2.83;;
25301;SDS011;13243;50.888;4.724;2023-04-25T09:05:28;8.85;;;2.47;;
25301;SDS011;13243;50.888;4.724;2023-04-25T09:10:30;8.40;;;2.67;;
25301;SDS011;13243;50.888;4.724;2023-04-25T09:15:33;6.97;;;2.35;;
25301;SDS011;13243;50.888;4.724;2023-04-25T09:20:55;10.65;;;2.55;;
25301;SDS011;13243;50.888;4.724;2023-04-25T09:31:04;9.45;;;2.28;;
25301;SDS011;13243;50.888;4.724;2023-04-25T09:36:07;12.90;;;2.92;;
25301;SDS011;13243;50.888;4.724;2023-04-25T09:41:12;6.82;;;2.00;;
25301;SDS011;13243;50.888;4.724;2023-04-25T09:46:14;7.47;;;1.88;;
25301;SDS011;13243;50.888;4.724;2023-04-25T09:51:16;12.13;;;2.40;;
25301;SDS011;13243;50.888;4.724;2023-04-25T09:56:18;5.32;;;1.77;;
25301;SDS011;13243;50.888;4.724;2023-04-25T10:01:21;9.50;;;2.50;;
25301;SDS011;13243;50.888;4.724;2023-04-25T10:06:26;6.28;;;1.80;;
25301;SDS011;13243;50.888;4.724;2023-04-25T10:11:30;8.48;;;1.38;;
25301;SDS011;13243;50.888;4.724;2023-04-25T10:16:33;7.55;;;1.85;;
25301;SDS011;13243;50.888;4.724;2023-04-25T10:21:36;3.42;;;1.08;;
25301;SDS011;13243;50.888;4.724;2023-04-25T10:26:45;5.10;;;1.30;;
25301;SDS011;13243;50.888;4.724;2023-04-25T10:31:48;4.32;;;1.27;;
25301;SDS011;13243;50.888;4.724;2023-04-25T10:36:51;3.38;;;1.23;;
25301;SDS011;13243;50.888;4.724;2023-04-25T10:47:00;6.00;;;1.40;;
25301;SDS011;13243;50.888;4.724;2023-04-25T11:02:43;3.38;;;1.10;;
25301;SDS011;13243;50.888;4.724;2023-04-25T11:13:01;3.35;;;1.23;;
25301;SDS011;13243;50.888;4.724;2023-04-25T11:18:03;8.32;;;1.77;;
25301;SDS011;13243;50.888;4.724;2023-04-25T11:23:05;5.80;;;1.63;;
25301;SDS011;13243;50.888;4.724;2023-04-25T11:28:07;4.10;;;1.85;;
25301;SDS011;13243;50.888;4.724;2023-04-25T11:33:09;4.25;;;1.65;;
25301;SDS011;13243;50.888;4.724;2023-04-25T11:38:11;4.95;;;1.45;;
25301;SDS011;13243;50.888;4.724;2023-04-25T11:43:13;3.42;;;1.10;;
25301;SDS011;13243;50.888;4.724;2023-04-25T11:48:15;2.58;;;1.55;;
25301;SDS011;13243;50.888;4.724;2023-04-25T11:53:17;3.55;;;1.48;;
25301;SDS011;13243;50.888;4.724;2023-04-25T11:58:19;5.78;;;1.63;;
25301;SDS011;13243;50.888;4.724;2023-04-25T12:03:21;9.63;;;2.03;;
25301;SDS011;13243;50.888;4.724;2023-04-25T12:08:27;4.85;;;1.30;;
25301;SDS011;13243;50.888;4.724;2023-04-25T12:13:29;5.82;;;1.67;;
25301;SDS011;13243;50.888;4.724;2023-04-25T12:18:32;7.25;;;2.00;;
25301;SDS011;13243;50.888;4.724;2023-04-25T12:23:38;3.88;;;1.88;;
25301;SDS011;13243;50.888;4.724;2023-04-25T12:28:44;2.90;;;1.67;;
25301;SDS011;13243;50.888;4.724;2023-04-25T12:33:48;3.42;;;1.73;;
25301;SDS011;13243;50.888;4.724;2023-04-25T12:38:50;6.47;;;1.80;;
25301;SDS011;13243;50.888;4.724;2023-04-25T12:43:53;4.40;;;2.00;;
25301;SDS011;13243;50.888;4.724;2023-04-25T12:48:54;2.97;;;1.50;;
25301;SDS011;13243;50.888;4.724;2023-04-25T12:54:03;2.33;;;1.20;;
25301;SDS011;13243;50.888;4.724;2023-04-25T12:59:06;2.70;;;1.27;;
25301;SDS011;13243;50.888;4.724;2023-04-25T13:04:07;4.57;;;1.45;;
25301;SDS011;13243;50.888;4.724;2023-04-25T13:09:10;7.40;;;1.45;;
25301;SDS011;13243;50.888;4.724;2023-04-25T13:14:13;4.35;;;1.25;;
25301;SDS011;13243;50.888;4.724;2023-04-25T13:19:16;5.35;;;1.25;;
25301;SDS011;13243;50.888;4.724;2023-04-25T13:24:18;5.03;;;1.17;;
25301;SDS011;13243;50.888;4.724;2023-04-25T13:29:20;7.32;;;1.10;;
25301;SDS011;13243;50.888;4.724;2023-04-25T13:34:22;8.15;;;1.65;;
25301;SDS011;13243;50.888;4.724;2023-04-25T13:39:23;6.32;;;1.50;;
25301;SDS011;13243;50.888;4.724;2023-04-25T13:44:25;2.85;;;1.20;;
25301;SDS011;13243;50.888;4.724;2023-04-25T13:49:27;3.00;;;1.40;;
25301;SDS011;13243;50.888;4.724;2023-04-25T13:54:29;2.28;;;1.25;;
25301;SDS011;13243;50.888;4.724;2023-04-25T13:59:31;3.83;;;1.42;;
25301;SDS011;13243;50.888;4.724;2023-04-25T14:04:33;3.83;;;1.35;;
25301;SDS011;13243;50.888;4.724;2023-04-25T14:09:35;4.15;;;1.30;;
25301;SDS011;13243;50.888;4.724;2023-04-25T14:14:37;5.75;;;1.13;;
25301;SDS011;13243;50.888;4.724;2023-04-25T14:19:39;2.60;;;1.17;;
25301;SDS011;13243;50.888;4.724;2023-04-25T14:24:44;12.75;;;1.25;;
25301;SDS011;13243;50.888;4.724;2023-04-25T14:29:46;3.55;;;0.95;;
25301;SDS011;13243;50.888;4.724;2023-04-25T14:34:48;2.92;;;1.50;;
25301;SDS011;13243;50.888;4.724;2023-04-25T14:39:50;7.03;;;1.65;;
25301;SDS011;13243;50.888;4.724;2023-04-25T14:44:52;2.97;;;1.05;;
25301;SDS011;13243;50.888;4.724;2023-04-25T14:49:54;2.67;;;1.35;;
25301;SDS011;13243;50.888;4.724;2023-04-25T14:54:56;8.73;;;1.35;;
25301;SDS011;13243;50.888;4.724;2023-04-25T14:59:58;5.00;;;1.58;;
25301;SDS011;13243;50.888;4.724;2023-04-25T15:04:59;2.20;;;1.10;;
25301;SDS011;13243;50.888;4.724;2023-04-25T15:10:02;4.70;;;1.10;;
25301;SDS011;13243;50.888;4.724;2023-04-25T15:15:04;6.47;;;1.30;;
25301;SDS011;13243;50.888;4.724;2023-04-25T15:20:08;5.65;;;1.17;;
25301;SDS011;13243;50.888;4.724;2023-04-25T15:25:11;2.97;;;1.08;;
25301;SDS011;13243;50.888;4.724;2023-04-25T15:30:13;6.32;;;1.25;;
25301;SDS011;13243;50.888;4.724;2023-04-25T15:35:16;2.67;;;1.10;;
25301;SDS011;13243;50.888;4.724;2023-04-25T15:40:18;3.85;;;1.20;;
25301;SDS011;13243;50.888;4.724;2023-04-25T15:45:21;5.65;;;1.90;;
25301;SDS011;13243;50.888;4.724;2023-04-25T15:50:26;3.63;;;1.10;;
25301;SDS011;13243;50.888;4.724;2023-04-25T15:55:28;4.85;;;1.95;;
25301;SDS011;13243;50.888;4.724;2023-04-25T16:00:29;5.85;;;1.50;;
25301;SDS011;13243;50.888;4.724;2023-04-25T16:05:31;4.90;;;1.40;;
25301;SDS011;13243;50.888;4.724;2023-04-25T16:10:33;3.58;;;1.27;;
25301;SDS011;13243;50.888;4.724;2023-04-25T16:15:35;1.75;;;1.05;;
25301;SDS011;13243;50.888;4.724;2023-04-25T16:20:38;3.10;;;1.02;;
25301;SDS011;13243;50.888;4.724;2023-04-25T16:25:39;4.60;;;1.10;;
25301;SDS011;13243;50.888;4.724;2023-04-25T16:30:43;3.88;;;1.13;;
25301;SDS011;13243;50.888;4.724;2023-04-25T16:35:44;6.10;;;1.35;;
25301;SDS011;13243;50.888;4.724;2023-04-25T16:40:47;2.25;;;0.90;;
25301;SDS011;13243;50.888;4.724;2023-04-25T16:45:49;2.88;;;1.10;;
25301;SDS011;13243;50.888;4.724;2023-04-25T16:50:51;5.78;;;1.85;;
25301;SDS011;13243;50.888;4.724;2023-04-25T16:55:53;6.32;;;1.20;;
25301;SDS011;13243;50.888;4.724;2023-04-25T17:00:55;3.30;;;1.33;;
25301;SDS011;13243;50.888;4.724;2023-04-25T17:05:58;7.25;;;1.27;;
25301;SDS011;13243;50.888;4.724;2023-04-25T17:11:01;2.97;;;0.85;;
25301;SDS011;13243;50.888;4.724;2023-04-25T17:16:03;4.25;;;1.08;;
25301;SDS011;13243;50.888;4.724;2023-04-25T17:21:06;2.22;;;1.10;;
25301;SDS011;13243;50.888;4.724;2023-04-25T17:26:09;3.83;;;1.10;;
25301;SDS011;13243;50.888;4.724;2023-04-25T17:31:15;1.95;;;1.00;;
25301;SDS011;13243;50.888;4.724;2023-04-25T17:36:17;4.20;;;1.05;;
25301;SDS011;13243;50.888;4.724;2023-04-25T17:41:19;3.17;;;1.25;;
25301;SDS011;13243;50.888;4.724;2023-04-25T17:46:21;5.47;;;1.40;;
25301;SDS011;13243;50.888;4.724;2023-04-25T17:51:23;9.93;;;1.40;;
25301;SDS011;13243;50.888;4.724;2023-04-25T17:56:25;3.10;;;1.23;;
25301;SDS011;13243;50.888;4.724;2023-04-25T18:01:28;5.05;;;1.17;;
25301;SDS011;13243;50.888;4.724;2023-04-25T18:06:31;7.38;;;1.60;;
25301;SDS011;13243;50.888;4.724;2023-04-25T18:11:33;5.40;;;1.02;;
25301;SDS011;13243;50.888;4.724;2023-04-25T18:16:35;5.10;;;1.25;;
25301;SDS011;13243;50.888;4.724;2023-04-25T18:21:37;9.98;;;1.40;;
25301;SDS011;13243;50.888;4.724;2023-04-25T18:26:42;3.65;;;1.20;;
25301;SDS011;13243;50.888;4.724;2023-04-25T18:31:45;7.43;;;1.27;;
25301;SDS011;13243;50.888;4.724;2023-04-25T18:36:49;4.63;;;1.38;;
25301;SDS011;13243;50.888;4.724;2023-04-25T18:41:52;3.60;;;1.30;;
25301;SDS011;13243;50.888;4.724;2023-04-25T18:47:07;7.32;;;1.83;;
25301;SDS011;13243;50.888;4.724;2023-04-25T18:52:10;6.30;;;1.73;;
25301;SDS011;13243;50.888;4.724;2023-04-25T18:57:15;7.13;;;1.73;;
25301;SDS011;13243;50.888;4.724;2023-04-25T19:02:18;5.88;;;1.70;;
25301;SDS011;13243;50.888;4.724;2023-04-25T19:07:20;6.22;;;1.98;;
25301;SDS011;13243;50.888;4.724;2023-04-25T19:12:23;7.88;;;2.45;;
25301;SDS011;13243;50.888;4.724;2023-04-25T19:17:25;10.35;;;2.35;;
25301;SDS011;13243;50.888;4.724;2023-04-25T19:22:30;4.00;;;1.55;;
25301;SDS011;13243;50.888;4.724;2023-04-25T19:27:32;6.90;;;1.77;;
25301;SDS011;13243;50.888;4.724;2023-04-25T19:32:34;5.80;;;1.50;;
25301;SDS011;13243;50.888;4.724;2023-04-25T19:37:36;3.63;;;1.50;;
25301;SDS011;13243;50.888;4.724;2023-04-25T19:42:41;6.85;;;1.90;;
25301;SDS011;13243;50.888;4.724;2023-04-25T19:47:43;8.25;;;2.10;;
25301;SDS011;13243;50.888;4.724;2023-04-25T19:52:45;6.22;;;2.03;;
25301;SDS011;13243;50.888;4.724;2023-04-25T19:57:47;4.57;;;2.13;;
25301;SDS011;13243;50.888;4.724;2023-04-25T20:02:49;6.25;;;2.15;;
25301;SDS011;13243;50.888;4.724;2023-04-25T20:07:51;7.15;;;1.88;;
25301;SDS011;13243;50.888;4.724;2023-04-25T20:12:54;10.18;;;2.00;;
25301;SDS011;13243;50.888;4.724;2023-04-25T20:17:56;9.02;;;1.92;;
25301;SDS011;13243;50.888;4.724;2023-04-25T20:22:58;6.70;;;3.38;;
25301;SDS011;13243;50.888;4.724;2023-04-25T20:28:00;10.48;;;2.35;;
25301;SDS011;13243;50.888;4.724;2023-04-25T20:33:02;6.18;;;2.78;;
25301;SDS011;13243;50.888;4.724;2023-04-25T20:38:04;10.05;;;2.75;;
25301;SDS011;13243;50.888;4.724;2023-04-25T20:43:06;6.95;;;3.17;;
25301;SDS011;13243;50.888;4.724;2023-04-25T20:48:11;7.28;;;2.53;;
25301;SDS011;13243;50.888;4.724;2023-04-25T20:53:13;8.30;;;3.05;;
25301;SDS011;13243;50.888;4.724;2023-04-25T20:58:15;5.35;;;2.75;;
25301;SDS011;13243;50.888;4.724;2023-04-25T21:03:17;7.80;;;2.67;;
25301;SDS011;13243;50.888;4.724;2023-04-25T21:08:19;6.93;;;2.20;;
25301;SDS011;13243;50.888;4.724;2023-04-25T21:13:21;9.70;;;3.58;;
25301;SDS011;13243;50.888;4.724;2023-04-25T21:18:22;6.82;;;2.15;;
25301;SDS011;13243;50.888;4.724;2023-04-25T21:23:24;5.82;;;2.40;;
25301;SDS011;13243;50.888;4.724;2023-04-25T21:28:26;10.73;;;3.00;;
25301;SDS011;13243;50.888;4.724;2023-04-25T21:33:28;9.85;;;3.53;;
25301;SDS011;13243;50.888;4.724;2023-04-25T21:38:30;8.13;;;3.15;;
25301;SDS011;13243;50.888;4.724;2023-04-25T21:43:32;12.40;;;3.47;;
25301;SDS011;13243;50.888;4.724;2023-04-25T21:48:34;7.75;;;3.58;;
25301;SDS011;13243;50.888;4.724;2023-04-25T21:53:36;8.38;;;2.83;;
25301;SDS011;13243;50.888;4.724;2023-04-25T21:58:38;12.88;;;3.47;;
25301;SDS011;13243;50.888;4.724;2023-04-25T22:03:40;7.53;;;3.40;;
25301;SDS011;13243;50.888;4.724;2023-04-25T22:08:42;13.35;;;3.90;;
25301;SDS011;13243;50.888;4.724;2023-04-25T22:13:44;8.38;;;3.65;;
25301;SDS011;13243;50.888;4.724;2023-04-25T22:18:47;10.27;;;3.55;;
25301;SDS011;13243;50.888;4.724;2023-04-25T22:23:49;10.32;;;3.88;;
25301;SDS011;13243;50.888;4.724;2023-04-25T22:28:52;11.38;;;4.38;;
25301;SDS011;13243;50.888;4.724;2023-04-25T22:33:55;6.05;;;3.30;;
25301;SDS011;13243;50.888;4.724;2023-04-25T22:38:57;6.60;;;3.55;;
25301;SDS011;13243;50.888;4.724;2023-04-25T22:43:58;13.07;;;4.38;;
25301;SDS011;13243;50.888;4.724;2023-04-25T22:49:00;9.57;;;4.10;;
25301;SDS011;13243;50.888;4.724;2023-04-25T22:54:02;9.25;;;4.63;;
25301;SDS011;13243;50.888;4.724;2023-04-25T22:59:05;8.65;;;5.25;;
25301;SDS011;13243;50.888;4.724;2023-04-25T23:04:07;7.32;;;4.45;;
25301;SDS011;13243;50.888;4.724;2023-04-25T23:09:10;7.70;;;3.83;;
25301;SDS011;13243;50.888;4.724;2023-04-25T23:14:13;16.30;;;4.53;;
25301;SDS011;13243;50.888;4.724;2023-04-25T23:19:15;9.93;;;4.28;;
25301;SDS011;13243;50.888;4.724;2023-04-25T23:24:16;11.30;;;3.70;;
25301;SDS011;13243;50.888;4.724;2023-04-25T23:29:18;7.85;;;3.72;;
25301;SDS011;13243;50.888;4.724;2023-04-25T23:34:21;6.15;;;3.47;;
25301;SDS011;13243;50.888;4.724;2023-04-25T23:39:23;7.97;;;3.92;;
25301;SDS011;13243;50.888;4.724;2023-04-25T23:44:24;7.18;;;4.45;;
25301;SDS011;13243;50.888;4.724;2023-04-25T23:49:26;10.60;;;4.35;;
25301;SDS011;13243;50.888;4.724;2023-04-25T23:54:28;10.60;;;4.95;;
25301;SDS011;13243;50.888;4.724;2023-04-25T23:59:30;11.90;;;4.85;;
